Time;durP1;ratioP1;P1;durP2;ratioP2;P2;SDS_P1;SDS_P2;PMS_P1;PMS_P2;Temp;Humidity;BMP_temperature;BMP_pressure;BME280_temperature;BME280_humidity;BME280_pressure;Samples;Min_cycle;Max_cycle;Signal;HPM_P1;HPM_P2
2021/12/06 00:01:30;;;;;;;9.25;4.43;;;;;;;6.76;60.97;101203.44;4810971;29;121061;-83
2021/12/06 00:04:02;;;;;;;7.40;3.83;;;;;;;6.77;60.77;101215.88;4796280;29;119708;-84
2021/12/06 00:06:33;;;;;;;9.07;3.75;;;;;;;6.75;61.30;101204.63;4800714;29;121948;-84
2021/12/06 00:09:00;;;;;;;7.78;3.70;;;;;;;6.68;60.92;101201.22;4809462;29;120031;-81
2021/12/06 00:11:29;;;;;;;6.53;3.60;;;;;;;6.75;60.74;101212.78;4811337;29;120450;-85
2021/12/06 00:14:03;;;;;;;10.65;5.22;;;;;;;6.72;60.46;101204.66;4782443;29;122328;-86
2021/12/06 00:16:31;;;;;;;6.65;3.92;;;;;;;6.79;60.88;101215.47;4813378;29;119818;-83
2021/12/06 00:18:57;;;;;;;7.85;3.55;;;;;;;6.77;60.59;101210.44;4782203;29;123007;-83
2021/12/06 00:21:26;;;;;;;6.18;3.30;;;;;;;6.81;60.50;101210.38;4810851;29;120371;-81
2021/12/06 00:23:55;;;;;;;9.75;3.42;;;;;;;6.68;60.61;101193.81;4808382;29;120762;-84
2021/12/06 00:26:22;;;;;;;6.95;3.30;;;;;;;6.80;59.99;101208.06;4795956;29;122033;-85
2021/12/06 00:28:56;;;;;;;6.38;3.10;;;;;;;6.78;60.21;101219.38;4799166;29;122594;-82
2021/12/06 00:31:23;;;;;;;10.55;3.60;;;;;;;6.76;60.31;101230.69;4793066;29;122247;-81
2021/12/06 00:33:58;;;;;;;7.85;3.45;;;;;;;6.68;60.42;101221.09;4817078;29;120202;-85
2021/12/06 00:36:28;;;;;;;7.30;3.47;;;;;;;6.57;60.41;101211.47;4809589;29;120454;-80
2021/12/06 00:38:55;;;;;;;9.13;3.42;;;;;;;6.70;60.63;101232.34;4796320;29;121149;-84
2021/12/06 00:41:21;;;;;;;14.98;7.13;;;;;;;6.71;60.97;101238.56;4791898;29;121829;-83
2021/12/06 00:43:55;;;;;;;6.53;3.55;;;;;;;6.62;60.18;101222.69;4798388;29;120021;-82
2021/12/06 00:46:22;;;;;;;9.38;4.43;;;;;;;6.67;60.56;101238.63;4787060;29;122110;-83
2021/12/06 00:48:48;;;;;;;8.85;3.53;;;;;;;6.64;60.66;101233.22;4819157;29;120031;-83
2021/12/06 00:51:15;;;;;;;8.52;3.15;;;;;;;6.68;60.03;101229.25;4792225;29;119834;-85
2021/12/06 00:53:45;;;;;;;10.77;3.58;;;;;;;6.69;60.74;101233.53;4793400;29;122812;-85
2021/12/06 00:56:12;;;;;;;9.20;3.45;;;;;;;6.60;60.53;101214.16;4781898;29;119623;-83
2021/12/06 00:58:40;;;;;;;8.77;3.88;;;;;;;6.62;60.67;101219.19;4796710;29;120131;-83
2021/12/06 01:01:07;;;;;;;9.73;3.90;;;;;;;6.57;60.76;101217.72;4797762;29;123294;-84
2021/12/06 01:03:37;;;;;;;8.10;3.60;;;;;;;6.69;60.72;101235.47;4796391;29;120258;-81
2021/12/06 01:06:05;;;;;;;8.82;4.00;;;;;;;6.69;60.72;101241.72;4795881;29;119785;-82
2021/12/06 01:08:31;;;;;;;6.80;3.55;;;;;;;6.57;60.33;101233.28;4795205;29;123026;-83
2021/12/06 01:11:00;;;;;;;7.35;3.90;;;;;;;6.65;60.27;101251.13;4826288;28;120339;-81
2021/12/06 01:13:29;;;;;;;7.75;3.42;;;;;;;6.56;60.18;101237.19;4797292;29;122730;-83
2021/12/06 01:16:00;;;;;;;7.22;3.92;;;;;;;6.54;60.20;101245.78;4792398;29;120138;-82
2021/12/06 01:18:28;;;;;;;7.53;3.40;;;;;;;6.48;60.34;101236.53;4797883;29;120669;-82
2021/12/06 01:21:22;;;;;;;8.00;3.60;;;;;;;6.42;59.79;101230.75;4811539;29;120242;-84
2021/12/06 01:23:58;;;;;;;10.00;3.85;;;;;;;6.47;60.34;101245.88;4780428;29;121406;-82
2021/12/06 01:31:59;;;;;;;5.68;3.50;;;;;;;6.45;60.42;101245.53;4811439;29;119794;-81
2021/12/06 01:40:01;;;;;;;5.95;3.30;;;;;;;6.43;60.99;101245.16;4828027;28;119880;-81
2021/12/06 01:42:29;;;;;;;9.73;3.60;;;;;;;6.33;61.35;101219.56;4816338;29;121025;-81
2021/12/06 01:44:57;;;;;;;5.93;3.58;;;;;;;6.38;60.70;101221.06;4795038;29;120313;-82
2021/12/06 01:47:31;;;;;;;8.43;3.58;;;;;;;6.38;60.87;101231.97;4802822;29;119787;-85
2021/12/06 01:50:06;;;;;;;8.63;3.67;;;;;;;6.45;60.92;101235.38;4800231;29;122676;-81
2021/12/06 01:52:40;;;;;;;7.30;3.90;;;;;;;6.40;60.90;101237.81;4795633;29;120380;-83
2021/12/06 01:55:12;;;;;;;7.80;3.88;;;;;;;6.39;60.90;101244.44;4810103;29;119789;-81
2021/12/06 01:57:38;;;;;;;11.40;4.20;;;;;;;6.43;60.91;101250.59;4818593;29;120537;-81
2021/12/06 02:00:10;;;;;;;8.93;3.85;;;;;;;6.49;61.11;101262.59;4796411;29;120462;-83
2021/12/06 02:02:42;;;;;;;7.78;3.58;;;;;;;6.52;61.08;101258.28;4796061;29;122071;-84
2021/12/06 02:05:10;;;;;;;8.55;4.20;;;;;;;6.47;61.34;101245.88;4807666;29;120084;-85
2021/12/06 02:07:36;;;;;;;7.70;3.80;;;;;;;6.47;61.18;101251.34;4795496;29;121840;-84
2021/12/06 02:10:05;;;;;;;6.13;3.67;;;;;;;6.55;61.31;101257.47;4818595;29;119827;-82
2021/12/06 02:12:34;;;;;;;10.82;3.80;;;;;;;6.57;61.12;101269.50;4783744;29;119989;-82
2021/12/06 02:15:07;;;;;;;7.13;3.83;;;;;;;6.56;60.97;101265.22;4778770;29;121200;-84
2021/12/06 02:17:40;;;;;;;7.88;3.60;;;;;;;6.50;60.90;101264.13;4782245;29;123286;-83
2021/12/06 02:20:22;;;;;;;9.40;4.20;;;;;;;6.43;60.98;101248.66;4819049;29;120205;-84
2021/12/06 02:22:49;;;;;;;8.95;3.85;;;;;;;6.50;60.72;101255.19;4812863;29;123815;-84
2021/12/06 02:25:18;;;;;;;8.32;3.50;;;;;;;6.43;61.29;101256.81;4794966;29;120469;-86
2021/12/06 02:27:48;;;;;;;8.85;4.07;;;;;;;6.50;61.11;101255.97;4802389;29;121447;-86
2021/12/06 02:30:16;;;;;;;7.65;3.88;;;;;;;6.45;60.87;101264.59;4812215;29;120543;-84
2021/12/06 02:32:44;;;;;;;6.22;3.53;;;;;;;6.48;60.72;101269.22;4780148;29;120079;-83
2021/12/06 02:35:15;;;;;;;9.10;3.97;;;;;;;6.50;60.86;101274.28;4784363;29;121769;-83
2021/12/06 02:37:41;;;;;;;7.35;3.65;;;;;;;6.47;60.76;101276.63;4813194;29;120505;-85
2021/12/06 02:40:23;;;;;;;7.03;3.53;;;;;;;6.48;61.39;101263.78;4781011;29;119408;-84
2021/12/06 02:42:50;;;;;;;6.50;3.20;;;;;;;6.47;60.92;101254.81;4795867;29;121175;-81
2021/12/06 02:45:19;;;;;;;7.55;3.55;;;;;;;6.54;60.50;101264.88;4775610;29;120111;-81
2021/12/06 02:47:52;;;;;;;7.15;3.65;;;;;;;6.55;60.44;101274.59;4799558;29;122552;-84
2021/12/06 02:50:24;;;;;;;8.52;3.55;;;;;;;6.46;60.73;101257.97;4796726;29;122940;-82
2021/12/06 02:52:50;;;;;;;4.53;3.53;;;;;;;6.53;60.57;101271.50;4817566;29;120990;-84
2021/12/06 02:55:52;;;;;;;6.25;3.55;;;;;;;6.49;60.45;101270.78;4796904;29;121438;-82
2021/12/06 02:58:32;;;;;;;6.72;3.58;;;;;;;6.44;60.48;101280.16;4813528;28;119871;-82
2021/12/06 03:00:59;;;;;;;6.00;3.47;;;;;;;6.40;60.54;101267.78;4778824;29;120405;-83
2021/12/06 03:03:27;;;;;;;5.85;3.80;;;;;;;6.43;60.70;101272.41;4809642;29;119483;-81
2021/12/06 03:05:55;;;;;;;7.80;3.78;;;;;;;6.32;60.64;101244.50;4804824;29;122939;-82
2021/12/06 03:08:35;;;;;;;9.73;3.80;;;;;;;6.35;60.75;101255.34;4796516;29;122128;-83
2021/12/06 03:11:02;;;;;;;6.93;3.60;;;;;;;6.45;61.16;101270.03;4823424;28;120681;-82
2021/12/06 03:13:28;;;;;;;8.63;4.05;;;;;;;6.39;61.16;101249.88;4806788;29;121419;-83
2021/12/06 03:15:55;;;;;;;7.65;4.03;;;;;;;6.41;61.43;101247.53;4780971;29;121507;-82
2021/12/06 03:18:21;;;;;;;7.10;3.88;;;;;;;6.53;60.78;101257.88;4806953;29;119960;-82
2021/12/06 03:20:48;;;;;;;7.28;3.85;;;;;;;6.53;61.32;101257.88;4815088;29;120429;-82
2021/12/06 03:23:13;;;;;;;7.00;3.90;;;;;;;6.62;60.60;101263.59;4795567;29;121794;-83
2021/12/06 03:25:39;;;;;;;9.18;3.90;;;;;;;6.56;60.45;101264.47;4797047;29;122870;-81
2021/12/06 03:28:08;;;;;;;8.65;4.13;;;;;;;6.64;61.25;101261.25;4823734;29;119683;-85
2021/12/06 03:30:34;;;;;;;10.20;3.72;;;;;;;6.64;60.40;101269.44;4796654;29;123110;-85
2021/12/06 03:33:00;;;;;;;7.28;3.85;;;;;;;6.62;60.95;101274.50;4810198;29;119841;-82
2021/12/06 03:35:26;;;;;;;7.72;3.80;;;;;;;6.62;60.69;101271.00;4812127;29;119708;-82
2021/12/06 03:37:52;;;;;;;7.78;4.43;;;;;;;6.63;61.23;101275.28;4800660;29;123187;-81
2021/12/06 03:40:18;;;;;;;8.40;4.10;;;;;;;6.58;61.54;101268.31;4808565;29;120206;-83
2021/12/06 03:42:44;;;;;;;9.50;4.28;;;;;;;6.64;61.65;101274.88;4804502;29;122190;-85
2021/12/06 03:45:11;;;;;;;8.18;4.57;;;;;;;6.64;61.05;101283.06;4813366;29;121016;-79
2021/12/06 03:47:38;;;;;;;10.18;4.18;;;;;;;6.65;60.78;101273.69;4811934;29;119836;-82
2021/12/06 03:50:07;;;;;;;7.35;3.90;;;;;;;6.63;60.28;101269.84;4805608;29;123998;-84
2021/12/06 03:52:34;;;;;;;7.57;3.97;;;;;;;6.59;60.55;101272.59;4801278;29;120878;-84
2021/12/06 03:55:09;;;;;;;7.63;4.05;;;;;;;6.61;60.87;101283.84;4799473;29;122384;-83
2021/12/06 03:57:38;;;;;;;10.32;3.90;;;;;;;6.63;61.26;101284.25;4813902;29;120256;-86
2021/12/06 04:00:09;;;;;;;12.00;4.32;;;;;;;6.65;61.09;101279.16;4816791;29;119696;-83
2021/12/06 04:02:40;;;;;;;7.63;3.72;;;;;;;6.61;61.13;101283.06;4794032;29;122153;-85
2021/12/06 04:05:06;;;;;;;9.32;4.50;;;;;;;6.59;61.21;101277.25;4786833;29;122707;-82
2021/12/06 04:07:32;;;;;;;8.48;4.05;;;;;;;6.55;61.29;101269.13;4810780;29;120250;-85
2021/12/06 04:09:58;;;;;;;9.43;4.32;;;;;;;6.59;61.15;101275.31;4816508;29;120420;-82
2021/12/06 04:12:23;;;;;;;8.27;4.00;;;;;;;6.67;61.11;101293.16;4812547;29;119666;-84
2021/12/06 04:14:51;;;;;;;8.55;3.80;;;;;;;6.60;60.98;101276.84;4820008;29;120064;-83
2021/12/06 04:17:18;;;;;;;8.02;4.30;;;;;;;6.65;61.20;101295.50;4814864;29;120147;-83
2021/12/06 04:19:44;;;;;;;8.75;4.10;;;;;;;6.63;61.49;101288.91;4788926;29;120412;-84
2021/12/06 04:22:12;;;;;;;7.43;4.03;;;;;;;6.69;61.58;101295.47;4795511;29;121236;-83
2021/12/06 04:24:39;;;;;;;7.57;4.15;;;;;;;6.70;61.13;101297.78;4798627;29;120406;-86
2021/12/06 04:27:17;;;;;;;9.70;4.05;;;;;;;6.61;61.31;101278.41;4792578;29;120227;-83
2021/12/06 04:29:52;;;;;;;11.30;4.30;;;;;;;6.67;61.33;101290.41;4789420;29;121014;-84
2021/12/06 04:32:21;;;;;;;9.68;4.28;;;;;;;6.53;61.61;101276.19;4821320;29;120402;-85
2021/12/06 04:34:47;;;;;;;9.43;4.22;;;;;;;6.52;61.63;101274.63;4800151;29;121704;-84
2021/12/06 04:37:14;;;;;;;11.55;4.38;;;;;;;6.50;61.95;101280.50;4783442;29;122805;-84
2021/12/06 04:39:42;;;;;;;10.32;4.45;;;;;;;6.57;62.50;101290.53;4811599;29;120068;-85
2021/12/06 04:42:09;;;;;;;8.82;3.83;;;;;;;6.56;62.74;101297.16;4800397;29;122273;-85
2021/12/06 04:44:35;;;;;;;8.82;4.03;;;;;;;6.54;62.61;101294.84;4797918;29;123010;-84
2021/12/06 04:47:04;;;;;;;10.27;4.03;;;;;;;6.47;62.86;101284.03;4802425;29;119854;-85
2021/12/06 04:49:30;;;;;;;9.43;4.72;;;;;;;6.45;63.14;101283.66;4793060;29;120645;-85
2021/12/06 04:52:03;;;;;;;9.77;4.45;;;;;;;6.52;63.20;101297.22;4802241;29;120245;-82
2021/12/06 04:54:35;;;;;;;10.75;4.75;;;;;;;6.51;63.84;101289.44;4815798;29;119985;-84
2021/12/06 04:57:28;;;;;;;11.70;4.43;;;;;;;6.51;63.64;101292.16;4798458;29;123252;-84
2021/12/06 04:59:59;;;;;;;9.23;4.50;;;;;;;6.51;63.68;101294.88;4803887;29;119526;-81
2021/12/06 05:02:29;;;;;;;9.50;4.40;;;;;;;6.52;63.62;101291.75;4803896;29;121816;-86
2021/12/06 05:05:00;;;;;;;9.38;4.68;;;;;;;6.52;63.72;101294.47;4802405;29;122770;-83
2021/12/06 05:07:34;;;;;;;7.57;4.20;;;;;;;6.57;63.57;101302.22;4807916;29;119933;-85
2021/12/06 05:10:02;;;;;;;12.80;4.63;;;;;;;6.57;63.87;101309.59;4796462;29;122276;-83
2021/12/06 05:12:31;;;;;;;8.90;4.20;;;;;;;6.55;64.37;101290.94;4780374;29;122973;-82
2021/12/06 05:14:59;;;;;;;8.23;4.25;;;;;;;6.60;63.89;101287.00;4797159;29;119678;-85
2021/12/06 05:17:26;;;;;;;7.68;4.30;;;;;;;6.67;63.95;101301.31;4796821;29;120514;-84
2021/12/06 05:19:52;;;;;;;11.85;4.28;;;;;;;6.73;64.21;101307.88;4812722;29;119860;-84
2021/12/06 05:22:18;;;;;;;12.35;4.45;;;;;;;6.80;64.50;101303.50;4803724;29;119884;-85
2021/12/06 05:24:44;;;;;;;11.25;4.45;;;;;;;6.77;64.58;101294.94;4793228;29;123297;-85
2021/12/06 05:27:10;;;;;;;15.30;4.45;;;;;;;6.81;64.04;101291.41;4813196;29;120749;-84
2021/12/06 05:29:43;;;;;;;9.68;4.30;;;;;;;6.88;64.31;101294.06;4808220;29;122077;-83
2021/12/06 05:32:12;;;;;;;12.95;3.92;;;;;;;6.93;63.76;101285.41;4786354;29;123268;-86
2021/12/06 05:34:40;;;;;;;9.77;4.05;;;;;;;7.04;63.79;101289.53;4798661;29;120470;-86
2021/12/06 05:37:10;;;;;;;11.38;4.50;;;;;;;7.10;64.02;101292.59;4812361;29;121333;-85
2021/12/06 05:39:36;;;;;;;10.40;4.45;;;;;;;7.09;63.93;101291.78;4801872;29;120613;-83
2021/12/06 05:42:12;;;;;;;10.38;4.97;;;;;;;7.15;64.30;101296.81;4831629;28;120052;-83
2021/12/06 05:44:39;;;;;;;9.43;4.55;;;;;;;7.15;64.42;101297.59;4796921;29;123671;-83
2021/12/06 05:47:05;;;;;;;11.52;4.00;;;;;;;7.20;63.52;101297.13;4799419;29;119665;-84
2021/12/06 05:49:31;;;;;;;11.23;4.20;;;;;;;7.17;64.09;101291.72;4798824;29;119937;-81
2021/12/06 05:51:57;;;;;;;9.63;3.85;;;;;;;7.28;64.03;101301.28;4819040;29;121512;-86
2021/12/06 05:54:24;;;;;;;14.43;5.20;;;;;;;7.41;63.95;101306.19;4812238;29;119915;-86
2021/12/06 05:56:52;;;;;;;9.13;3.97;;;;;;;7.44;63.43;101305.34;4798186;29;119949;-85
2021/12/06 05:59:18;;;;;;;8.27;3.58;;;;;;;7.45;63.94;101306.88;4810897;29;121756;-84
2021/12/06 06:01:47;;;;;;;10.02;4.40;;;;;;;7.55;63.91;101314.13;4812614;29;120770;-83
2021/12/06 06:04:13;;;;;;;10.05;3.70;;;;;;;7.54;63.47;101309.84;4810599;29;123052;-83
2021/12/06 06:06:38;;;;;;;10.55;3.72;;;;;;;7.62;63.40;101316.78;4806478;29;119988;-84
2021/12/06 06:09:06;;;;;;;9.63;4.20;;;;;;;7.66;63.45;101318.25;4820023;29;119691;-84
2021/12/06 06:11:34;;;;;;;10.25;3.75;;;;;;;7.61;62.59;101299.63;4811342;29;120284;-85
2021/12/06 06:14:01;;;;;;;9.77;3.92;;;;;;;7.62;62.55;101297.66;4801258;29;121634;-86
2021/12/06 06:16:31;;;;;;;12.65;3.92;;;;;;;7.66;62.55;101310.06;4796950;29;121908;-83
2021/12/06 06:18:58;;;;;;;9.50;4.03;;;;;;;7.65;62.69;101305.03;4781052;29;123795;-84
2021/12/06 06:21:24;;;;;;;9.52;3.50;;;;;;;7.65;62.41;101299.56;4800366;29;120225;-85
2021/12/06 06:23:49;;;;;;;12.25;4.22;;;;;;;7.66;62.13;101298.38;4797733;29;122353;-84
2021/12/06 06:26:15;;;;;;;10.23;4.22;;;;;;;7.73;62.10;101311.91;4801991;29;119983;-83
2021/12/06 06:28:41;;;;;;;11.05;3.58;;;;;;;7.70;62.27;101307.28;4811446;29;119394;-84
2021/12/06 06:31:07;;;;;;;9.38;3.22;;;;;;;7.69;62.21;101300.25;4820635;29;120256;-84
2021/12/06 06:33:33;;;;;;;9.02;3.28;;;;;;;7.76;62.02;101319.25;4783881;29;119713;-85
2021/12/06 06:35:59;;;;;;;8.02;3.05;;;;;;;7.75;61.81;101314.22;4796679;29;120198;-83
2021/12/06 06:38:25;;;;;;;8.50;3.40;;;;;;;7.78;62.41;101322.34;4802463;29;122811;-84
2021/12/06 06:40:51;;;;;;;8.18;3.47;;;;;;;7.71;61.72;101306.09;4803477;29;120311;-84
2021/12/06 06:43:18;;;;;;;10.77;3.17;;;;;;;7.79;61.74;101325.84;4785849;29;121689;-83
2021/12/06 06:45:47;;;;;;;9.05;3.53;;;;;;;7.82;61.81;101325.03;4811782;29;119954;-86
2021/12/06 06:48:13;;;;;;;9.00;3.45;;;;;;;7.78;62.21;101330.53;4799038;29;121684;-85
2021/12/06 06:50:39;;;;;;;9.68;4.20;;;;;;;7.76;61.90;101319.25;4814400;29;119795;-82
2021/12/06 06:53:05;;;;;;;14.95;5.50;;;;;;;7.85;61.76;101338.63;4799076;29;119857;-84
2021/12/06 06:55:31;;;;;;;11.45;4.40;;;;;;;7.79;62.06;101334.81;4818069;29;119719;-84
2021/12/06 06:57:57;;;;;;;7.20;3.33;;;;;;;7.87;61.93;101336.25;4831145;28;119749;-83
2021/12/06 07:00:31;;;;;;;9.00;3.55;;;;;;;7.82;62.03;101325.81;4797766;29;119897;-82
2021/12/06 07:02:57;;;;;;;6.07;3.10;;;;;;;7.91;61.91;101344.38;4809761;29;120692;-81
2021/12/06 07:05:23;;;;;;;9.02;3.58;;;;;;;7.85;62.26;101324.22;4815295;29;119797;-86
2021/12/06 07:07:49;;;;;;;10.48;3.70;;;;;;;7.84;62.23;101328.91;4780872;29;122034;-86
2021/12/06 07:10:15;;;;;;;10.80;3.78;;;;;;;7.88;62.18;101329.59;4811991;29;121835;-85
2021/12/06 07:12:47;;;;;;;9.20;4.07;;;;;;;7.87;62.57;101324.56;4809752;29;120102;-85
2021/12/06 07:15:16;;;;;;;10.38;4.05;;;;;;;7.85;62.18;101324.97;4813819;29;119908;-85
2021/12/06 07:17:43;;;;;;;8.13;3.78;;;;;;;7.79;62.56;101326.63;4805024;29;122854;-86
2021/12/06 07:20:11;;;;;;;4.68;3.50;;;;;;;7.80;62.58;101330.88;4812415;29;120102;-80
2021/12/06 07:22:41;;;;;;;6.68;3.85;;;;;;;7.80;62.55;101339.09;4811247;29;120519;-84
2021/12/06 07:25:14;;;;;;;7.32;4.10;;;;;;;7.76;62.77;101341.09;4797247;29;120078;-82
2021/12/06 07:27:40;;;;;;;7.97;3.80;;;;;;;7.76;63.51;101338.38;4811789;29;121203;-82
2021/12/06 07:30:08;;;;;;;9.45;4.40;;;;;;;7.67;63.31;101336.19;4778864;29;121340;-84
2021/12/06 07:32:34;;;;;;;6.63;3.38;;;;;;;7.63;63.05;101329.22;4796255;29;120591;-83
2021/12/06 07:35:00;;;;;;;6.22;3.65;;;;;;;7.56;63.34;101315.69;4815460;29;122357;-83
2021/12/06 07:37:26;;;;;;;7.80;3.67;;;;;;;7.64;63.48;101336.25;4798904;29;124838;-83
2021/12/06 07:39:55;;;;;;;5.70;3.80;;;;;;;7.60;63.88;101325.38;4782399;29;119846;-85
2021/12/06 07:42:21;;;;;;;5.88;4.13;;;;;;;7.59;64.15;101323.06;4795709;29;121947;-84
2021/12/06 07:44:48;;;;;;;7.82;4.18;;;;;;;7.61;64.33;101320.69;4798759;29;124264;-85
2021/12/06 07:47:15;;;;;;;7.75;4.13;;;;;;;7.59;64.02;101306.69;4815667;29;119721;-85
2021/12/06 07:49:43;;;;;;;6.25;3.33;;;;;;;7.67;63.71;101316.28;4806336;29;119768;-83
2021/12/06 07:52:10;;;;;;;6.68;3.70;;;;;;;7.64;64.41;101308.94;4782400;29;120282;-84
2021/12/06 07:54:38;;;;;;;5.43;3.25;;;;;;;7.61;63.65;101318.72;4815971;29;121730;-83
2021/12/06 07:57:07;;;;;;;6.13;3.35;;;;;;;7.57;63.74;101309.81;4814611;29;121131;-84
2021/12/06 07:59:34;;;;;;;5.18;3.20;;;;;;;7.45;63.25;101296.75;4800181;29;119697;-84
2021/12/06 08:02:01;;;;;;;5.28;3.20;;;;;;;7.36;63.57;101282.84;4797911;29;120194;-81
2021/12/06 08:04:27;;;;;;;5.65;2.97;;;;;;;7.34;64.17;101286.00;4817798;29;120431;-83
2021/12/06 08:06:53;;;;;;;4.45;2.97;;;;;;;7.29;63.90;101272.03;4796130;29;119758;-84
2021/12/06 08:09:19;;;;;;;4.15;3.13;;;;;;;7.32;64.38;101271.19;4819531;29;119834;-81
2021/12/06 08:11:44;;;;;;;6.20;3.63;;;;;;;7.32;64.45;101261.06;4814093;29;119471;-84
2021/12/06 08:14:10;;;;;;;6.93;4.13;;;;;;;7.27;63.97;101258.03;4815504;29;119845;-82
2021/12/06 08:16:40;;;;;;;6.47;4.10;;;;;;;7.29;64.38;101264.63;4798528;29;120363;-81
2021/12/06 08:19:09;;;;;;;10.35;4.43;;;;;;;7.26;64.21;101257.25;4809430;29;120375;-84
2021/12/06 08:21:36;;;;;;;6.30;3.75;;;;;;;7.21;64.34;101263.19;4812793;29;120314;-84
2021/12/06 08:24:04;;;;;;;5.07;3.70;;;;;;;7.17;64.65;101262.47;4797519;29;123593;-84
2021/12/06 08:26:35;;;;;;;7.53;3.80;;;;;;;7.18;64.78;101265.97;4800808;29;124334;-84
2021/12/06 08:29:08;;;;;;;6.55;3.63;;;;;;;7.20;65.55;101272.56;4785797;29;121726;-83
2021/12/06 08:31:35;;;;;;;8.63;3.83;;;;;;;7.27;65.82;101275.16;4801387;29;119814;-83
2021/12/06 08:34:01;;;;;;;7.22;3.30;;;;;;;7.31;65.26;101269.66;4795100;29;120204;-85
2021/12/06 08:36:27;;;;;;;6.93;3.60;;;;;;;7.42;65.63;101272.22;4796336;29;122963;-85
2021/12/06 08:38:54;;;;;;;6.22;3.50;;;;;;;7.41;66.04;101257.81;4815090;29;120118;-82
2021/12/06 08:41:24;;;;;;;5.00;3.40;;;;;;;7.55;65.18;101265.00;4780645;29;121071;-83
2021/12/06 08:43:51;;;;;;;9.40;3.92;;;;;;;7.51;64.74;101262.31;4797320;29;120382;-82
2021/12/06 08:46:21;;;;;;;8.43;3.90;;;;;;;7.58;65.62;101266.91;4805626;29;120173;-85
2021/12/06 08:48:48;;;;;;;9.00;4.32;;;;;;;7.64;65.83;101270.72;4793882;29;121098;-81
2021/12/06 08:51:25;;;;;;;9.38;4.55;;;;;;;7.66;65.61;101257.41;4808214;29;119836;-84
2021/12/06 08:53:52;;;;;;;10.13;4.60;;;;;;;7.62;65.66;101246.56;4818598;29;120183;-85
2021/12/06 08:56:19;;;;;;;12.98;4.90;;;;;;;7.76;65.79;101267.38;4813392;29;120050;-82
2021/12/06 08:58:44;;;;;;;7.40;3.95;;;;;;;7.81;64.95;101261.44;4793781;29;120236;-84
2021/12/06 09:01:10;;;;;;;8.82;4.18;;;;;;;7.75;64.95;101249.44;4796769;29;121545;-84
2021/12/06 09:03:36;;;;;;;9.43;4.47;;;;;;;7.80;64.43;101262.63;4805412;29;122571;-80
2021/12/06 09:06:07;;;;;;;9.48;4.57;;;;;;;7.69;64.73;101246.41;4807306;29;119862;-82
2021/12/06 09:08:39;;;;;;;11.52;4.30;;;;;;;7.78;64.74;101270.44;4793200;29;120905;-79
2021/12/06 09:11:05;;;;;;;12.32;4.63;;;;;;;7.75;64.35;101268.56;4806181;29;122684;-84
2021/12/06 09:13:32;;;;;;;9.07;4.20;;;;;;;7.66;64.80;101257.41;4791541;29;119910;-82
2021/12/06 09:16:01;;;;;;;7.40;4.10;;;;;;;7.76;65.03;101277.53;4795138;29;123281;-80
2021/12/06 09:18:29;;;;;;;8.50;4.28;;;;;;;7.71;65.07;101270.59;4789641;29;121246;-81
2021/12/06 09:20:57;;;;;;;7.82;4.40;;;;;;;7.72;64.98;101269.41;4809552;29;121130;-80
2021/12/06 09:23:24;;;;;;;7.30;4.25;;;;;;;7.81;65.59;101280.56;4791041;29;120494;-81
2021/12/06 09:25:50;;;;;;;11.85;4.40;;;;;;;7.86;65.34;101280.09;4788690;29;120068;-84
2021/12/06 09:28:17;;;;;;;9.43;4.75;;;;;;;7.91;65.99;101284.28;4791337;29;122177;-78
2021/12/06 09:30:44;;;;;;;7.63;4.68;;;;;;;7.95;65.40;101280.31;4807041;29;123542;-82
2021/12/06 09:33:15;;;;;;;10.00;4.55;;;;;;;8.00;65.63;101270.84;4809019;29;119858;-82
2021/12/06 09:35:45;;;;;;;;;;;;;;;8.04;65.84;101278.97;4795044;29;122019;-81
2021/12/06 09:38:15;;;;;;;9.77;4.45;;;;;;;8.07;66.14;101259.03;4796479;29;122636;-80
2021/12/06 09:40:44;;;;;;;11.38;4.70;;;;;;;8.19;65.30;101277.53;4810902;29;119696;-81
2021/12/06 09:43:13;;;;;;;8.00;4.43;;;;;;;8.21;65.06;101275.94;4809249;29;121126;-83
2021/12/06 09:45:40;;;;;;;11.07;4.55;;;;;;;8.21;65.54;101267.72;4806113;29;120387;-79
2021/12/06 09:48:07;;;;;;;8.40;4.32;;;;;;;8.30;65.48;101264.47;4807683;29;122058;-81
2021/12/06 09:50:45;;;;;;;9.68;4.70;;;;;;;8.35;65.48;101261.25;4807487;29;120109;-81
2021/12/06 09:53:16;;;;;;;7.63;3.80;;;;;;;8.43;65.02;101262.66;4807458;29;121354;-81
2021/12/06 09:55:43;;;;;;;8.57;4.07;;;;;;;8.39;65.44;101259.22;4777471;29;121872;-80
2021/12/06 09:58:12;;;;;;;9.40;3.92;;;;;;;8.50;64.90;101270.69;4791369;29;122381;-80
2021/12/06 10:00:45;;;;;;;7.65;3.80;;;;;;;8.51;64.63;101266.78;4811676;29;120032;-79
2021/12/06 10:03:14;;;;;;;9.48;4.28;;;;;;;8.54;64.55;101265.19;4775724;29;121726;-82
2021/12/06 10:05:42;;;;;;;8.65;3.72;;;;;;;8.55;64.12;101255.78;4792156;29;121158;-84
2021/12/06 10:08:08;;;;;;;8.65;4.30;;;;;;;8.66;64.75;101263.75;4788338;29;119814;-81
2021/12/06 10:10:35;;;;;;;7.47;4.22;;;;;;;8.70;65.02;101256.25;4808443;29;120030;-82
2021/12/06 10:13:01;;;;;;;8.57;4.20;;;;;;;8.82;64.42;101264.59;4790322;29;120039;-80
2021/12/06 10:15:29;;;;;;;10.52;3.35;;;;;;;8.85;63.36;101257.50;4794211;29;122152;-83
2021/12/06 10:17:56;;;;;;;7.55;3.90;;;;;;;8.74;62.58;101235.81;4805399;29;123085;-83
2021/12/06 10:20:26;;;;;;;8.65;4.00;;;;;;;8.90;62.56;101252.28;4794705;29;120020;-82
2021/12/06 10:22:54;;;;;;;7.15;4.03;;;;;;;8.91;62.32;101250.31;4805369;29;120349;-81
2021/12/06 10:25:32;;;;;;;7.30;3.90;;;;;;;8.87;61.93;101239.47;4806781;29;120348;-79
2021/12/06 10:28:04;;;;;;;7.03;3.55;;;;;;;8.75;61.10;101222.91;4792839;29;122028;-81
2021/12/06 10:30:39;;;;;;;5.38;3.30;;;;;;;8.68;61.39;101223.09;4799167;29;120162;-79
2021/12/06 10:33:12;;;;;;;10.25;3.85;;;;;;;8.58;61.04;101224.88;4822803;28;119841;-82
2021/12/06 10:35:44;;;;;;;7.47;3.47;;;;;;;8.60;61.16;101236.91;4794269;29;119989;-83
2021/12/06 10:38:11;;;;;;;5.82;3.50;;;;;;;8.53;61.86;101231.59;4795279;29;122800;-83
2021/12/06 10:40:42;;;;;;;8.02;3.80;;;;;;;8.40;61.72;101219.75;4809840;29;119610;-84
2021/12/06 10:43:11;;;;;;;6.43;3.22;;;;;;;8.37;61.05;101215.13;4806707;29;121118;-83
2021/12/06 10:45:42;;;;;;;5.47;3.28;;;;;;;8.41;62.14;101221.28;4817282;29;119545;-79
2021/12/06 10:48:29;;;;;;;7.78;3.92;;;;;;;8.39;62.26;101210.00;4793903;29;122185;-82
2021/12/06 10:51:02;;;;;;;7.97;3.80;;;;;;;8.48;62.40;101209.44;4807899;29;120345;-83
2021/12/06 10:53:59;;;;;;;7.20;3.22;;;;;;;8.34;61.58;101199.59;4789905;29;120256;-84
2021/12/06 10:56:37;;;;;;;6.72;3.40;;;;;;;8.40;61.26;101211.56;4795276;29;121828;-82
2021/12/06 10:59:15;;;;;;;7.13;3.40;;;;;;;8.41;61.56;101207.63;4806625;29;120510;-83
2021/12/06 11:01:42;;;;;;;6.75;3.55;;;;;;;8.41;61.83;101204.13;4808068;29;121389;-81
2021/12/06 11:04:12;;;;;;;8.70;3.33;;;;;;;8.41;61.98;101193.97;4794600;29;121422;-83
2021/12/06 11:06:44;;;;;;;7.07;3.20;;;;;;;8.40;60.75;101186.19;4809507;29;120461;-81
2021/12/06 11:09:16;;;;;;;7.15;3.15;;;;;;;8.32;61.26;101182.81;4776486;29;121758;-81
2021/12/06 11:11:49;;;;;;;7.03;3.53;;;;;;;8.28;60.57;101179.34;4806930;29;123208;-84
2021/12/06 11:14:26;;;;;;;4.50;3.33;;;;;;;8.30;61.46;101185.19;4790407;29;120996;-82
2021/12/06 11:16:58;;;;;;;5.28;3.10;;;;;;;8.25;60.71;101177.47;4788588;29;121941;-84
2021/12/06 11:19:27;;;;;;;7.10;3.50;;;;;;;8.28;61.41;101173.88;4778618;29;124442;-82
2021/12/06 11:22:06;;;;;;;6.53;3.20;;;;;;;8.23;61.78;101175.16;4809027;29;121426;-82
2021/12/06 11:24:39;;;;;;;4.72;2.83;;;;;;;8.25;61.48;101177.47;4794057;29;121683;-81
2021/12/06 11:27:19;;;;;;;6.80;3.30;;;;;;;8.30;61.16;101180.50;4796355;29;120567;-81
2021/12/06 11:30:03;;;;;;;5.20;3.20;;;;;;;8.28;61.30;101171.94;4793904;29;120667;-85
2021/12/06 11:32:49;;;;;;;5.82;3.35;;;;;;;8.21;61.71;101160.38;4813488;29;120710;-84
2021/12/06 11:35:22;;;;;;;5.00;2.80;;;;;;;8.19;60.74;101151.84;4812593;29;119938;-83
2021/12/06 11:37:51;;;;;;;5.57;2.55;;;;;;;8.28;61.34;101171.94;4815432;29;119728;-85
2021/12/06 11:40:24;;;;;;;5.10;2.80;;;;;;;8.20;61.19;101159.59;4794984;29;123046;-85
2021/12/06 11:43:00;;;;;;;5.82;2.75;;;;;;;8.24;60.28;101165.00;4811826;29;119773;-83
2021/12/06 11:45:33;;;;;;;7.43;2.90;;;;;;;8.26;60.96;101159.88;4815648;29;122154;-82